Time;durP1;ratioP1;P1;durP2;ratioP2;P2;SDS_P1;SDS_P2;PMS_P1;PMS_P2;Temp;Humidity;BMP_temperature;BMP_pressure;BME280_temperature;BME280_humidity;BME280_pressure;Samples;Min_cycle;Max_cycle;Signal;HPM_P1;HPM_P2
2023/04/08 00:02:03;;;;;;;8.50;7.30;;;5.20;93.50;6.40;96687.00;;;;5085776;28;20230;-69
2023/04/08 00:04:52;;;;;;;9.83;8.07;;;5.20;93.50;6.30;96686.00;;;;5084837;28;20426;-69
2023/04/08 00:07:43;;;;;;;13.03;8.80;;;5.20;93.70;6.40;96695.00;;;;5081322;28;20422;-69
2023/04/08 00:10:31;;;;;;;10.53;8.47;;;5.10;93.70;6.40;96690.00;;;;5086523;28;20461;-69
2023/04/08 00:13:20;;;;;;;12.03;8.27;;;5.20;93.30;6.30;96680.00;;;;5085517;28;20232;-68
2023/04/08 00:16:09;;;;;;;11.07;8.23;;;5.10;93.30;6.30;96688.00;;;;5082993;28;20207;-69
2023/04/08 00:18:57;;;;;;;10.63;8.17;;;5.10;93.60;6.30;96684.00;;;;5077591;28;20261;-69
2023/04/08 00:21:46;;;;;;;13.40;8.20;;;5.10;93.70;6.50;96682.00;;;;5085280;28;20226;-69
2023/04/08 00:24:36;;;;;;;13.73;7.63;;;5.10;94.00;6.40;96682.00;;;;5081924;28;20187;-68
2023/04/08 00:27:25;;;;;;;10.10;8.50;;;5.10;94.00;6.30;96686.00;;;;5086706;28;20226;-68
2023/04/08 00:30:14;;;;;;;10.03;8.97;;;5.10;94.00;6.30;96676.00;;;;5076358;28;20207;-68
2023/04/08 00:33:03;;;;;;;11.40;8.97;;;5.10;94.10;6.10;96680.00;;;;5085873;28;20284;-68
2023/04/08 00:35:52;;;;;;;13.87;8.20;;;5.10;94.20;6.00;96678.00;;;;5086781;28;20241;-69
2023/04/08 00:38:40;;;;;;;14.80;8.70;;;5.00;94.40;5.70;96680.00;;;;5084145;28;20488;-70
2023/04/08 00:41:30;;;;;;;12.40;8.43;;;4.90;94.50;5.80;96678.00;;;;5081866;28;20215;-68
2023/04/08 00:44:19;;;;;;;10.07;8.33;;;4.90;95.10;5.80;96685.00;;;;5088091;28;20429;-68
2023/04/08 00:47:12;;;;;;;12.30;8.70;;;4.80;95.40;6.20;96684.00;;;;5085072;28;20202;-68
2023/04/08 00:50:00;;;;;;;13.80;9.17;;;4.80;95.20;6.20;96690.00;;;;5080958;28;20256;-68
2023/04/08 00:52:49;;;;;;;11.83;7.70;;;4.90;95.10;6.10;96678.00;;;;5089438;28;20199;-68
2023/04/08 00:55:38;;;;;;;14.60;8.83;;;4.90;95.20;5.90;96673.00;;;;5081434;28;20490;-69
2023/04/08 00:58:29;;;;;;;14.33;9.17;;;4.90;95.60;6.00;96683.00;;;;5083228;28;20207;-69
2023/04/08 01:01:26;;;;;;;11.67;7.33;;;4.80;95.70;6.00;96670.00;;;;5088857;28;20531;-70
2023/04/08 01:04:28;;;;;;;12.80;7.97;;;4.90;95.90;5.90;96673.00;;;;5087648;28;20932;-69
2023/04/08 01:07:22;;;;;;;11.33;8.50;;;4.90;95.80;5.60;96675.00;;;;5084950;28;20437;-68
2023/04/08 01:10:16;;;;;;;13.27;9.33;;;4.80;96.00;5.70;96678.00;;;;5077069;28;20441;-69
2023/04/08 01:13:10;;;;;;;14.37;8.27;;;4.70;96.30;5.40;96665.00;;;;5079385;28;20827;-70
2023/04/08 01:16:01;;;;;;;11.17;8.00;;;4.70;96.40;5.60;96675.00;;;;5077608;28;20421;-70
2023/04/08 01:18:51;;;;;;;10.53;7.47;;;4.60;96.60;5.80;96673.00;;;;5082159;28;20952;-69
2023/04/08 01:21:40;;;;;;;10.97;9.00;;;4.60;96.70;6.00;96662.00;;;;5083940;28;20444;-69
2023/04/08 01:24:34;;;;;;;10.37;9.23;;;4.60;96.90;5.90;96670.00;;;;5086127;28;20523;-69
2023/04/08 01:27:25;;;;;;;12.57;8.93;;;4.70;96.80;5.90;96663.00;;;;5080708;28;20883;-69
2023/04/08 01:30:15;;;;;;;10.83;7.60;;;4.70;96.70;5.90;96666.00;;;;5083469;28;20565;-69
2023/04/08 01:33:06;;;;;;;9.43;8.10;;;4.70;96.60;5.80;96661.00;;;;5084639;28;21349;-69
2023/04/08 01:35:57;;;;;;;9.53;8.10;;;4.70;96.60;6.00;96661.00;;;;5088647;28;20433;-68
2023/04/08 01:38:48;;;;;;;11.57;8.77;;;4.80;96.60;5.80;96664.00;;;;5089935;28;20418;-69
2023/04/08 01:41:37;;;;;;;12.23;8.33;;;4.80;96.70;5.80;96661.00;;;;5083601;28;20441;-69
2023/04/08 01:44:28;;;;;;;10.43;7.60;;;4.70;96.50;5.90;96662.00;;;;5083472;28;20503;-69
2023/04/08 01:47:17;;;;;;;11.33;8.17;;;4.70;96.60;6.00;96670.00;;;;5089115;28;20422;-69
2023/04/08 01:50:08;;;;;;;7.83;7.03;;;4.80;96.80;5.80;96665.00;;;;5083104;28;20462;-68
2023/04/08 01:52:57;;;;;;;12.87;7.93;;;4.80;96.80;5.90;96668.00;;;;5082759;28;20491;-68
2023/04/08 01:55:50;;;;;;;14.43;8.93;;;4.80;96.80;5.90;96664.00;;;;5085445;28;20225;-69
2023/04/08 01:58:43;;;;;;;11.17;9.07;;;4.70;96.80;6.00;96660.00;;;;5086768;28;20841;-68
2023/04/08 02:01:35;;;;;;;9.13;8.17;;;4.80;97.10;6.20;96664.00;;;;5086245;28;20429;-68
2023/04/08 02:04:24;;;;;;;12.20;8.10;;;4.80;97.30;6.30;96665.00;;;;5089965;28;20461;-68
2023/04/08 02:07:12;;;;;;;9.90;8.37;;;4.90;97.20;6.20;96662.00;;;;5085513;28;20811;-68
2023/04/08 02:10:01;;;;;;;10.57;8.63;;;4.90;97.20;6.10;96662.00;;;;5081464;28;20441;-68
2023/04/08 02:12:50;;;;;;;12.60;8.93;;;4.90;97.20;6.10;96668.00;;;;5081608;28;20433;-68
2023/04/08 02:15:45;;;;;;;11.43;8.53;;;4.90;97.50;5.70;96662.00;;;;5080585;28;20249;-69
2023/04/08 02:18:38;;;;;;;12.00;9.33;;;4.90;97.60;5.70;96657.00;;;;5085266;28;21021;-69
2023/04/08 02:21:37;;;;;;;10.53;8.07;;;4.80;98.00;6.00;96651.00;;;;5084480;28;20464;-71
2023/04/08 02:24:28;;;;;;;9.00;7.90;;;4.70;97.80;6.30;96659.00;;;;5082705;28;20469;-70
2023/04/08 02:27:17;;;;;;;10.80;7.90;;;4.80;97.70;6.00;96654.00;;;;5085522;28;20299;-70
2023/04/08 02:30:08;;;;;;;9.43;8.07;;;4.80;97.50;5.80;96655.00;;;;5075604;28;20779;-69
2023/04/08 02:32:58;;;;;;;10.87;8.40;;;4.80;97.70;5.50;96665.00;;;;5084803;28;20477;-69
2023/04/08 02:35:50;;;;;;;10.67;8.40;;;4.70;98.00;5.70;96652.00;;;;5086097;28;20433;-69
2023/04/08 02:38:38;;;;;;;8.80;7.90;;;4.70;98.40;5.80;96662.00;;;;5083906;28;20940;-68
2023/04/08 02:41:29;;;;;;;11.33;8.07;;;4.70;98.30;6.00;96657.00;;;;5072503;28;20217;-69
2023/04/08 02:44:17;;;;;;;11.53;8.23;;;4.70;98.10;6.20;96659.00;;;;5079096;28;20290;-69
2023/04/08 02:47:06;;;;;;;12.00;7.50;;;4.80;98.20;6.30;96665.00;;;;5089149;28;20199;-69
2023/04/08 02:49:55;;;;;;;11.50;8.13;;;4.80;98.20;6.30;96663.00;;;;5088408;28;20453;-69
2023/04/08 02:52:45;;;;;;;10.80;8.30;;;4.90;98.20;6.30;96677.00;;;;5089524;28;20418;-69
2023/04/08 02:55:34;;;;;;;11.90;9.17;;;4.90;98.10;6.30;96662.00;;;;5089494;28;20207;-69
2023/04/08 02:58:22;;;;;;;11.47;7.97;;;4.90;98.20;6.40;96663.00;;;;5086725;28;20230;-69
2023/04/08 03:01:11;;;;;;;10.83;7.37;;;5.00;98.30;6.20;96661.00;;;;5086412;28;20671;-68
2023/04/08 03:04:00;;;;;;;12.23;8.40;;;5.00;98.50;6.00;96660.00;;;;5084599;28;20230;-68
2023/04/08 03:06:49;;;;;;;9.87;8.40;;;5.00;98.70;5.80;96655.00;;;;5082819;28;20199;-68
2023/04/08 03:09:39;;;;;;;11.00;8.10;;;4.90;98.60;5.70;96661.00;;;;5084173;28;20479;-69
2023/04/08 03:12:27;;;;;;;12.17;8.27;;;4.80;98.50;5.60;96656.00;;;;5086686;28;20681;-69
2023/04/08 03:15:16;;;;;;;11.70;7.50;;;4.70;98.80;5.40;96654.00;;;;5085912;28;20208;-69
2023/04/08 03:18:05;;;;;;;19.53;7.37;;;4.60;99.00;5.20;96658.00;;;;5082141;28;20234;-69
2023/04/08 03:20:54;;;;;;;18.37;9.23;;;4.50;99.60;5.50;96659.00;;;;5085849;28;20211;-71
2023/04/08 03:23:42;;;;;;;9.87;7.70;;;4.40;99.80;5.60;96664.00;;;;5085770;28;20983;-69
2023/04/08 03:26:32;;;;;;;17.47;8.40;;;4.40;99.90;5.60;96669.00;;;;5079923;28;20421;-70
2023/04/08 03:29:21;;;;;;;8.27;6.67;;;4.50;99.90;5.50;96665.00;;;;5080960;28;20431;-70
2023/04/08 03:32:10;;;;;;;8.67;7.40;;;4.40;99.90;5.50;96654.00;;;;5082045;28;20757;-69
2023/04/08 03:34:59;;;;;;;10.20;7.73;;;4.40;99.90;5.50;96662.00;;;;5081574;28;20442;-70
2023/04/08 03:37:47;;;;;;;9.53;7.97;;;4.40;99.90;5.40;96657.00;;;;5085826;28;20520;-69
2023/04/08 03:40:36;;;;;;;10.33;8.27;;;4.40;99.90;5.50;96657.00;;;;5087112;28;20456;-69
2023/04/08 03:43:26;;;;;;;14.53;8.77;;;4.40;99.90;5.60;96665.00;;;;5081422;28;20474;-69
2023/04/08 03:46:15;;;;;;;13.43;7.43;;;4.40;99.90;5.60;96673.00;;;;5081093;28;20433;-69
2023/04/08 03:49:03;;;;;;;9.63;8.07;;;4.40;99.90;5.70;96667.00;;;;5086870;28;20929;-69
2023/04/08 03:51:52;;;;;;;8.87;7.43;;;4.50;99.90;5.50;96673.00;;;;5079254;28;20469;-69
2023/04/08 03:54:41;;;;;;;14.10;8.57;;;4.50;99.90;5.80;96676.00;;;;5081074;28;20430;-69
2023/04/08 03:57:30;;;;;;;13.43;10.00;;;4.50;99.90;5.70;96676.00;;;;5082931;28;20409;-69
2023/04/08 04:00:20;;;;;;;9.13;8.20;;;4.50;99.90;5.40;96674.00;;;;5077504;28;20203;-68
2023/04/08 04:03:11;;;;;;;11.17;8.47;;;4.50;99.90;5.50;96684.00;;;;5083742;28;20241;-69
2023/04/08 04:06:00;;;;;;;13.23;9.70;;;4.50;99.90;5.90;96693.00;;;;5085587;28;20274;-69
2023/04/08 04:08:49;;;;;;;8.43;7.60;;;4.60;99.90;5.90;96684.00;;;;5087669;28;20432;-69
2023/04/08 04:11:38;;;;;;;13.07;7.63;;;4.60;99.90;5.90;96705.00;;;;5084117;28;20731;-69
2023/04/08 04:14:26;;;;;;;9.63;7.23;;;4.60;99.90;6.10;96695.00;;;;5073431;28;20426;-69
2023/04/08 04:17:16;;;;;;;13.30;9.10;;;4.60;99.90;6.20;96699.00;;;;5077913;28;20500;-69
2023/04/08 04:20:06;;;;;;;13.00;8.70;;;4.70;99.90;6.10;96706.00;;;;5084814;28;20286;-69
2023/04/08 04:22:55;;;;;;;7.67;6.83;;;4.70;99.90;5.70;96698.00;;;;5081362;28;21020;-69
2023/04/08 04:25:44;;;;;;;12.77;7.87;;;4.70;99.90;5.80;96712.00;;;;5087149;28;20422;-70
2023/04/08 04:28:32;;;;;;;18.80;8.63;;;4.70;99.90;5.90;96705.00;;;;5073859;28;20476;-69
2023/04/08 04:31:22;;;;;;;9.07;7.53;;;4.70;99.90;6.00;96715.00;;;;5085237;28;21066;-70
2023/04/08 04:34:13;;;;;;;12.10;8.97;;;4.70;99.90;6.20;96721.00;;;;5086619;28;20675;-70
2023/04/08 04:37:01;;;;;;;13.10;10.05;;;4.60;99.90;6.10;96719.00;;;;5077338;28;20529;-69
2023/04/08 04:39:50;;;;;;;11.60;10.03;;;4.80;99.90;6.20;96734.00;;;;5081575;28;20187;-69
2023/04/08 04:42:39;;;;;;;11.87;9.13;;;4.80;99.90;6.20;96718.00;;;;5085166;28;20248;-69
2023/04/08 04:45:27;;;;;;;12.17;9.80;;;4.80;99.90;6.10;96727.00;;;;5085282;28;20621;-69
2023/04/08 04:48:16;;;;;;;13.33;8.53;;;4.80;99.90;6.20;96730.00;;;;5086245;28;20203;-69
2023/04/08 04:51:07;;;;;;;14.67;9.03;;;4.90;99.90;6.10;96717.00;;;;5081510;28;20945;-69
2023/04/08 04:53:55;;;;;;;10.07;8.90;;;4.90;99.90;6.00;96747.00;;;;5087190;28;20200;-69
2023/04/08 04:56:45;;;;;;;15.37;10.03;;;4.90;99.90;6.20;96739.00;;;;5087541;28;20192;-69
2023/04/08 04:59:34;;;;;;;13.07;10.37;;;4.90;99.90;6.30;96736.00;;;;5084196;28;20690;-70
2023/04/08 05:02:23;;;;;;;16.87;10.73;;;4.90;99.90;6.20;96741.00;;;;5085871;28;20223;-69
2023/04/08 05:05:12;;;;;;;12.57;11.03;;;4.90;99.90;6.30;96741.00;;;;5085143;28;21056;-69
2023/04/08 05:08:02;;;;;;;12.03;9.67;;;4.90;99.90;6.10;96748.00;;;;5081692;28;20211;-69
2023/04/08 05:10:50;;;;;;;11.43;8.03;;;5.00;99.90;5.70;96745.00;;;;5082243;28;20495;-69
2023/04/08 05:13:39;;;;;;;11.57;7.93;;;4.90;99.90;5.60;96744.00;;;;5084873;28;20216;-70
2023/04/08 05:16:28;;;;;;;10.83;8.90;;;4.80;99.90;5.40;96740.00;;;;5090426;28;20199;-69
2023/04/08 05:19:16;;;;;;;11.40;8.47;;;4.70;99.90;5.50;96746.00;;;;5083352;28;20204;-69
2023/04/08 05:22:05;;;;;;;11.53;7.80;;;4.60;99.90;5.80;96745.00;;;;5082243;28;20231;-70
2023/04/08 05:24:55;;;;;;;9.77;7.90;;;4.60;99.90;5.80;96747.00;;;;5090669;28;20218;-70
2023/04/08 05:27:44;;;;;;;9.20;7.97;;;4.60;99.90;5.40;96757.00;;;;5089281;28;20945;-70
2023/04/08 05:30:33;;;;;;;13.17;8.67;;;4.50;99.90;5.60;96760.00;;;;5088590;28;20854;-70
2023/04/08 05:33:21;;;;;;;9.80;7.73;;;4.50;99.90;5.80;96769.00;;;;5083330;28;21034;-69
2023/04/08 05:36:11;;;;;;;9.63;8.37;;;4.50;99.90;6.00;96767.00;;;;5079504;28;20424;-69
2023/04/08 05:39:00;;;;;;;10.40;8.83;;;4.50;99.90;6.10;96776.00;;;;5087229;28;20414;-70
2023/04/08 05:41:51;;;;;;;11.17;8.50;;;4.60;99.90;5.90;96771.00;;;;5088365;28;20441;-69
2023/04/08 05:44:42;;;;;;;11.97;8.53;;;4.60;99.90;5.90;96775.00;;;;5088401;28;20480;-70
2023/04/08 05:47:31;;;;;;;11.30;8.27;;;4.60;99.90;6.00;96783.00;;;;5085340;28;20417;-70
2023/04/08 05:50:20;;;;;;;13.63;9.43;;;4.70;99.90;5.70;96781.00;;;;5085348;28;20429;-69
2023/04/08 05:53:09;;;;;;;16.43;9.70;;;4.60;99.90;5.50;96785.00;;;;5081594;28;20414;-68
2023/04/08 05:55:58;;;;;;;16.37;11.20;;;4.60;99.90;5.70;96785.00;;;;5086523;28;20329;-68
2023/04/08 05:58:48;;;;;;;22.63;13.07;;;4.60;99.90;5.80;96785.00;;;;5089392;28;20425;-68
2023/04/08 06:01:37;;;;;;;16.23;11.17;;;4.60;99.90;5.90;96791.00;;;;5080556;28;20552;-69
2023/04/08 06:04:25;;;;;;;21.63;11.87;;;6.20;99.90;5.90;96787.00;;;;5083125;28;20473;-68
2023/04/08 06:07:14;;;;;;;20.80;15.80;;;4.60;99.90;6.00;96787.00;;;;5087726;28;20438;-68
2023/04/08 06:10:04;;;;;;;16.17;12.50;;;4.70;99.90;6.10;96788.00;;;;5086949;28;20433;-69
2023/04/08 06:12:52;;;;;;;12.83;9.50;;;4.70;99.90;6.30;96795.00;;;;5084943;28;20436;-69
2023/04/08 06:15:43;;;;;;;12.47;10.27;;;4.80;99.90;6.30;96798.00;;;;5090520;28;20212;-68
2023/04/08 06:18:31;;;;;;;12.97;11.63;;;4.80;99.90;6.20;96811.00;;;;5081905;28;20529;-68
2023/04/08 06:21:20;;;;;;;10.00;7.97;;;4.80;99.90;6.10;96814.00;;;;5081075;28;20980;-68
2023/04/08 06:24:09;;;;;;;14.00;9.67;;;4.90;99.90;6.00;96809.00;;;;5077215;28;20203;-69
2023/04/08 06:26:58;;;;;;;17.40;11.90;;;4.90;99.90;5.80;96809.00;;;;5081094;28;20207;-69
2023/04/08 06:29:47;;;;;;;20.13;13.03;;;4.80;99.90;5.70;96805.00;;;;5086424;28;20266;-68
2023/04/08 06:32:37;;;;;;;17.30;12.60;;;4.70;99.90;5.70;96819.00;;;;5083656;28;20422;-69
2023/04/08 06:35:26;;;;;;;18.73;13.57;;;4.70;99.90;5.60;96819.00;;;;5087945;28;20425;-70
2023/04/08 06:38:15;;;;;;;15.53;13.43;;;4.60;99.90;5.60;96812.00;;;;5081520;28;20444;-69
2023/04/08 06:41:04;;;;;;;22.23;14.50;;;4.60;99.90;5.80;96821.00;;;;5086863;28;20446;-69
2023/04/08 06:43:53;;;;;;;20.47;16.33;;;4.60;99.90;6.10;96828.00;;;;5084751;28;20441;-69
2023/04/08 06:46:41;;;;;;;16.13;13.93;;;4.60;99.90;6.20;96826.00;;;;5089341;28;20566;-69
2023/04/08 06:49:31;;;;;;;19.10;12.87;;;4.70;99.90;6.20;96831.00;;;;5087531;28;20418;-69
2023/04/08 06:52:20;;;;;;;21.37;13.47;;;4.70;99.90;6.30;96825.00;;;;5081422;28;20790;-69
2023/04/08 06:55:09;;;;;;;14.97;13.33;;;4.80;99.90;6.30;96843.00;;;;5085637;28;20598;-68
2023/04/08 06:57:58;;;;;;;17.97;13.60;;;4.80;99.90;6.30;96831.00;;;;5086784;28;20883;-69
2023/04/08 07:00:47;;;;;;;20.67;15.10;;;4.90;99.90;6.40;96831.00;;;;5085592;28;20448;-69
2023/04/08 07:03:36;;;;;;;24.93;15.67;;;4.90;99.90;6.50;96842.00;;;;5082153;28;20203;-68
2023/04/08 07:06:26;;;;;;;15.97;14.10;;;5.00;99.90;6.60;96848.00;;;;5087224;28;20608;-69
2023/04/08 07:09:14;;;;;;;19.83;14.87;;;5.10;99.90;6.60;96841.00;;;;5086533;28;20510;-69
2023/04/08 07:12:03;;;;;;;20.10;15.57;;;5.10;99.90;6.50;96854.00;;;;5074888;28;20226;-68
2023/04/08 07:14:53;;;;;;;18.30;13.33;;;5.20;99.90;6.40;96853.00;;;;5077326;28;20215;-69
2023/04/08 07:17:41;;;;;;;18.70;13.07;;;5.10;99.90;6.40;96868.00;;;;5085769;28;20292;-68
2023/04/08 07:20:30;;;;;;;16.87;13.27;;;5.10;99.90;6.50;96869.00;;;;5086442;28;21246;-68
2023/04/08 07:23:21;;;;;;;18.43;14.07;;;5.10;99.90;6.40;96871.00;;;;5087309;28;20203;-68
2023/04/08 07:26:10;;;;;;;22.57;14.23;;;5.10;99.90;6.40;96865.00;;;;5081005;28;20511;-69
2023/04/08 07:28:59;;;;;;;19.43;13.63;;;5.10;99.90;6.30;96867.00;;;;5084713;28;20701;-69
2023/04/08 07:31:47;;;;;;;22.47;16.50;;;5.10;99.90;6.20;96868.00;;;;5090053;28;21001;-68
2023/04/08 07:34:36;;;;;;;21.63;16.00;;;5.00;99.90;6.20;96881.00;;;;5089143;28;20237;-68
2023/04/08 07:37:25;;;;;;;23.00;16.10;;;4.90;99.90;5.90;96886.00;;;;5087149;28;20203;-69
2023/04/08 07:40:15;;;;;;;17.83;13.67;;;4.90;99.90;5.60;96879.00;;;;5076690;28;20221;-70
2023/04/08 07:43:04;;;;;;;19.37;15.30;;;4.80;99.90;6.00;96877.00;;;;5075787;28;20422;-70
2023/04/08 07:45:52;;;;;;;19.43;14.40;;;4.70;99.90;6.00;96895.00;;;;5082578;28;20254;-70
2023/04/08 07:48:41;;;;;;;24.50;15.10;;;4.70;99.90;5.90;96894.00;;;;5087291;28;20202;-70
2023/04/08 07:51:30;;;;;;;18.80;15.20;;;4.70;99.90;6.00;96883.00;;;;5088318;28;20441;-69
2023/04/08 07:54:19;;;;;;;17.33;14.10;;;4.60;99.90;6.00;96895.00;;;;5083744;28;20436;-70
2023/04/08 07:57:09;;;;;;;19.83;14.33;;;4.60;99.90;6.00;96895.00;;;;5088778;28;20967;-70
2023/04/08 07:59:57;;;;;;;21.73;14.37;;;4.60;99.90;5.90;96890.00;;;;5088718;28;20297;-70
2023/04/08 08:02:46;;;;;;;19.00;14.43;;;4.60;99.90;6.00;96897.00;;;;5091816;28;20440;-70
2023/04/08 08:05:36;;;;;;;19.53;14.50;;;4.60;99.90;5.80;96900.00;;;;5091471;28;20624;-70
2023/04/08 08:08:25;;;;;;;20.17;14.53;;;4.60;99.90;5.80;96896.00;;;;5088199;28;20674;-70
2023/04/08 08:11:14;;;;;;;18.23;14.57;;;4.60;99.90;5.70;96896.00;;;;5081538;28;20710;-69
2023/04/08 08:14:04;;;;;;;22.40;14.70;;;4.60;99.90;5.80;96896.00;;;;5080006;28;20199;-70
2023/04/08 08:16:53;;;;;;;20.87;15.63;;;4.60;99.90;5.90;96902.00;;;;5086689;28;20199;-70
2023/04/08 08:19:42;;;;;;;21.27;16.77;;;4.60;99.90;6.10;96899.00;;;;5083236;28;20215;-69
2023/04/08 08:22:30;;;;;;;29.77;22.50;;;4.60;99.90;6.20;96903.00;;;;5076567;28;20458;-69
2023/04/08 08:25:20;;;;;;;27.07;19.73;;;4.70;99.90;6.20;96901.00;;;;5079191;28;20200;-70
2023/04/08 08:28:11;;;;;;;24.80;18.17;;;4.70;99.90;6.10;96915.00;;;;5080846;28;20199;-70
2023/04/08 08:31:02;;;;;;;36.30;22.37;;;4.80;99.90;6.20;96910.00;;;;5080004;28;20304;-69
2023/04/08 08:33:50;;;;;;;25.87;20.00;;;4.80;99.90;6.20;96912.00;;;;5087932;28;20678;-69
2023/04/08 08:36:39;;;;;;;34.70;21.53;;;4.80;99.90;6.30;96917.00;;;;5083959;28;20426;-70
2023/04/08 08:39:28;;;;;;;30.70;19.13;;;4.80;99.90;6.40;96909.00;;;;5085532;28;20771;-70
2023/04/08 08:42:21;;;;;;;31.13;20.37;;;4.90;99.90;6.40;96920.00;;;;5082985;28;20218;-70
2023/04/08 08:45:10;;;;;;;45.13;25.30;;;4.90;99.90;6.50;96920.00;;;;5080485;28;20199;-70
2023/04/08 08:48:00;;;;;;;57.50;31.60;;;5.00;99.90;6.50;96925.00;;;;5075157;28;20706;-69
2023/04/08 08:50:49;;;;;;;26.73;18.63;;;5.00;99.90;6.60;96928.00;;;;5086911;28;20446;-69
2023/04/08 08:53:38;;;;;;;23.50;18.53;;;5.10;99.90;6.70;96924.00;;;;5088066;28;20433;-70
2023/04/08 08:56:27;;;;;;;20.77;16.30;;;5.20;99.90;6.80;96931.00;;;;5090408;28;20219;-70
2023/04/08 08:59:16;;;;;;;19.67;14.93;;;5.20;99.90;6.90;96924.00;;;;5078100;28;20199;-69
2023/04/08 09:02:26;;;;;;;16.03;14.33;;;5.30;99.90;7.00;96927.00;;;;5088057;28;20305;-69
2023/04/08 09:05:17;;;;;;;19.90;16.07;;;5.40;99.90;7.00;96929.00;;;;5085345;28;20191;-70
2023/04/08 09:08:23;;;;;;;18.67;15.40;;;5.50;99.90;7.10;96942.00;;;;5078303;28;20199;-70
2023/04/08 09:11:14;;;;;;;21.03;16.13;;;5.60;99.90;7.30;96939.00;;;;5087412;28;20262;-69
2023/04/08 09:14:03;;;;;;;19.70;15.93;;;5.60;99.90;7.30;96941.00;;;;5088965;28;20621;-68
2023/04/08 09:16:52;;;;;;;21.77;17.33;;;5.70;99.90;7.20;96935.00;;;;5088945;28;20211;-69
2023/04/08 09:20:08;;;;;;;20.07;16.10;;;5.70;99.90;7.20;96937.00;;;;5086991;28;20199;-69
2023/04/08 09:23:00;;;;;;;20.47;16.37;;;5.80;99.90;7.80;96942.00;;;;5092934;28;20737;-69
2023/04/08 09:25:49;;;;;;;16.90;15.10;;;5.90;99.90;7.80;96943.00;;;;5084443;28;20666;-69
2023/04/08 09:28:38;;;;;;;17.70;14.50;;;6.00;99.90;7.90;96947.00;;;;5091213;28;21043;-70
2023/04/08 09:31:29;;;;;;;19.20;15.50;;;6.20;99.90;8.00;96953.00;;;;5089675;28;20769;-69
2023/04/08 09:34:19;;;;;;;16.53;14.70;;;6.30;99.90;8.10;96949.00;;;;5080967;28;20204;-69
2023/04/08 09:37:08;;;;;;;18.03;16.07;;;6.40;99.90;8.40;96948.00;;;;5079527;28;20268;-69
2023/04/08 09:39:58;;;;;;;20.83;15.13;;;6.50;99.90;8.50;96944.00;;;;5085241;28;20549;-69
2023/04/08 09:42:49;;;;;;;17.77;13.43;;;6.70;99.90;7.80;96955.00;;;;5089166;28;20287;-69
2023/04/08 09:45:41;;;;;;;22.13;17.37;;;6.70;99.90;8.10;96961.00;;;;5089352;28;20288;-69
2023/04/08 09:48:37;;;;;;;18.10;13.87;;;6.60;99.90;8.20;96971.00;;;;5086274;28;20206;-69
2023/04/08 09:51:29;;;;;;;22.67;15.57;;;6.60;99.90;8.30;96958.00;;;;5083052;28;20242;-70
2023/04/08 09:54:21;;;;;;;23.13;16.77;;;6.70;99.90;8.50;96967.00;;;;5085488;28;20580;-69
2023/04/08 09:57:22;;;;;;;19.23;15.20;;;6.70;99.90;8.30;96960.00;;;;5076220;28;20568;-69
2023/04/08 10:00:14;;;;;;;23.00;14.97;;;6.80;99.90;8.30;96967.00;;;;5077336;28;20260;-69
2023/04/08 10:03:13;;;;;;;18.93;16.03;;;6.80;99.90;8.40;96962.00;;;;5078652;28;20219;-70
2023/04/08 10:06:03;;;;;;;23.03;15.53;;;6.80;99.90;8.30;96954.00;;;;5081874;28;20215;-69
2023/04/08 10:08:52;;;;;;;18.33;14.80;;;6.80;99.90;8.50;96955.00;;;;5090572;28;20195;-70
2023/04/08 10:11:40;;;;;;;21.10;16.27;;;6.80;99.90;8.50;96969.00;;;;5086663;28;20705;-69
2023/04/08 10:14:31;;;;;;;18.10;15.73;;;6.90;99.90;8.60;96963.00;;;;5075531;28;20196;-69
2023/04/08 10:17:27;;;;;;;18.63;16.07;;;6.90;99.90;8.50;96971.00;;;;5095078;28;20213;-69
2023/04/08 10:20:43;;;;;;;19.73;16.53;;;6.90;99.90;8.40;96966.00;;;;5089792;28;20202;-69
2023/04/08 10:24:00;;;;;;;19.03;15.80;;;6.90;99.90;8.40;96955.00;;;;5078440;28;20238;-69
2023/04/08 10:26:48;;;;;;;19.53;16.93;;;6.90;99.90;8.60;96957.00;;;;5090457;28;20215;-69
2023/04/08 10:29:39;;;;;;;18.70;16.37;;;6.90;99.90;8.60;96961.00;;;;5095911;28;20291;-69
2023/04/08 10:32:30;;;;;;;21.87;16.23;;;7.00;99.90;8.50;96964.00;;;;5094173;28;20291;-70
2023/04/08 10:35:30;;;;;;;28.57;20.30;;;7.00;99.90;8.50;96955.00;;;;5091547;28;20715;-69
2023/04/08 10:38:19;;;;;;;17.37;15.40;;;7.00;99.90;8.60;96952.00;;;;5096891;28;20214;-69
2023/04/08 10:41:08;;;;;;;21.40;17.80;;;7.10;99.90;8.80;96954.00;;;;5098863;28;20222;-69
2023/04/08 10:43:57;;;;;;;24.37;18.27;;;7.10;99.90;9.00;96956.00;;;;5093617;28;20286;-70
2023/04/08 10:46:49;;;;;;;27.70;21.83;;;7.20;99.90;9.20;96958.00;;;;5099112;28;20262;-69
2023/04/08 10:49:37;;;;;;;15.13;12.53;;;7.30;99.90;8.70;96961.00;;;;5092593;28;20207;-69
2023/04/08 10:52:26;;;;;;;15.53;13.10;;;7.40;99.90;9.00;96960.00;;;;5095120;28;20214;-69
2023/04/08 10:55:17;;;;;;;14.43;12.93;;;7.40;99.90;8.50;96958.00;;;;5096453;28;20199;-69
2023/04/08 10:58:07;;;;;;;17.13;14.47;;;7.40;99.90;8.80;96947.00;;;;5092965;28;20684;-70
2023/04/08 11:00:56;;;;;;;14.23;12.47;;;7.40;99.90;8.50;96945.00;;;;5096298;28;20219;-69
2023/04/08 11:03:46;;;;;;;16.73;13.43;;;7.40;99.90;8.70;96957.00;;;;5093689;28;20195;-70
2023/04/08 11:06:37;;;;;;;15.67;13.67;;;7.30;99.90;8.60;96959.00;;;;5091473;28;20256;-70
2023/04/08 11:09:26;;;;;;;16.83;15.03;;;7.30;99.90;8.90;96963.00;;;;5080075;28;20623;-70
2023/04/08 11:12:17;;;;;;;18.27;14.37;;;7.30;99.90;9.00;96964.00;;;;5083479;28;20216;-70
2023/04/08 11:15:07;;;;;;;20.23;15.73;;;7.30;99.90;8.80;96964.00;;;;5083527;28;20569;-70
2023/04/08 11:17:56;;;;;;;17.80;13.93;;;7.40;99.90;8.50;96960.00;;;;5084144;28;20187;-70
2023/04/08 11:20:47;;;;;;;18.30;15.33;;;7.30;99.90;8.90;96944.00;;;;5086841;28;20296;-70
2023/04/08 11:23:36;;;;;;;27.23;20.60;;;7.30;99.90;9.40;96950.00;;;;5087220;28;20196;-70
2023/04/08 11:26:26;;;;;;;24.93;17.80;;;7.50;99.90;9.90;96948.00;;;;5086952;28;20239;-70
2023/04/08 11:29:15;;;;;;;19.43;15.10;;;7.60;99.90;9.90;96956.00;;;;5084516;28;20686;-70
2023/04/08 11:32:04;;;;;;;20.43;16.63;;;7.80;99.90;10.20;96953.00;;;;5083440;28;20223;-70
2023/04/08 11:34:53;;;;;;;17.93;13.97;;;8.10;99.90;10.10;96948.00;;;;5089722;28;20203;-69
2023/04/08 11:37:46;;;;;;;15.87;13.10;;;8.20;99.90;10.20;96947.00;;;;5086905;28;20203;-70
2023/04/08 11:40:34;;;;;;;17.40;14.93;;;8.40;99.90;9.60;96951.00;;;;5085662;28;20215;-70
2023/04/08 11:43:23;;;;;;;21.23;13.57;;;8.40;99.90;9.40;96954.00;;;;5085236;28;20199;-69
2023/04/08 11:46:13;;;;;;;16.83;15.10;;;8.30;99.90;9.60;96947.00;;;;5090163;28;20191;-70
2023/04/08 11:49:06;;;;;;;15.30;13.20;;;8.20;99.90;10.00;96950.00;;;;5091422;28;20234;-70
2023/04/08 11:51:57;;;;;;;18.57;15.63;;;8.30;99.90;8.20;96938.00;;;;5086791;28;20247;-74
2023/04/08 11:54:49;;;;;;;18.17;15.27;;;8.00;99.90;8.80;96958.00;;;;5084128;28;20203;-72
2023/04/08 11:57:37;;;;;;;18.50;15.23;;;7.80;99.90;8.80;96957.00;;;;5081718;28;20215;-71
2023/04/08 12:00:27;;;;;;;16.13;14.07;;;7.80;99.90;9.00;96951.00;;;;5085129;28;20219;-72
2023/04/08 12:03:15;;;;;;;17.87;15.17;;;7.70;99.90;8.20;96957.00;;;;5083609;28;20251;-68
2023/04/08 12:06:06;;;;;;;14.87;12.67;;;7.50;99.90;8.00;96949.00;;;;5083204;28;20231;-72
2023/04/08 12:08:56;;;;;;;16.33;14.07;;;7.40;99.90;8.00;96945.00;;;;5081806;28;20230;-67
2023/04/08 12:11:47;;;;;;;17.13;15.00;;;7.20;99.90;8.70;96945.00;;;;5087261;28;20280;-68
2023/04/08 12:14:35;;;;;;;16.33;14.67;;;7.20;99.90;8.80;96948.00;;;;5085682;28;20195;-68
2023/04/08 12:17:24;;;;;;;14.87;12.33;;;7.30;99.90;8.90;96940.00;;;;5084404;28;20341;-67
2023/04/08 12:20:15;;;;;;;15.37;12.83;;;7.40;99.90;8.90;96942.00;;;;5077682;28;20199;-69
2023/04/08 12:23:06;;;;;;;24.00;16.73;;;7.50;99.90;9.30;96938.00;;;;5083280;28;20203;-69
2023/04/08 12:25:55;;;;;;;15.50;13.37;;;7.60;99.90;9.40;96957.00;;;;5087652;28;20595;-69
2023/04/08 12:28:45;;;;;;;16.23;11.43;;;7.70;99.90;9.00;96956.00;;;;5084831;28;20265;-70
2023/04/08 12:31:35;;;;;;;14.67;11.90;;;7.70;99.90;8.90;96950.00;;;;5088113;28;20230;-69
2023/04/08 12:34:24;;;;;;;11.50;10.30;;;7.70;99.90;8.90;96946.00;;;;5087706;28;20222;-70
2023/04/08 12:37:12;;;;;;;12.50;10.43;;;7.70;99.90;9.40;96953.00;;;;5087838;28;20204;-69
2023/04/08 12:40:01;;;;;;;11.90;10.10;;;7.70;99.90;9.70;96954.00;;;;5084111;28;20265;-69